Time;durP1;ratioP1;P1;durP2;ratioP2;P2;SDS_P1;SDS_P2;PMS_P1;PMS_P2;Temp;Humidity;BMP_temperature;BMP_pressure;BME280_temperature;BME280_humidity;BME280_pressure;Samples;Min_cycle;Max_cycle;Signal;HPM_P1;HPM_P2
2022/06/04 00:00:59;;;;;;;1.58;1.48;;;;;;;15.54;61.59;101233.63;5053540;28;20183;-83
2022/06/04 00:03:27;;;;;;;3.47;2.75;;;;;;;15.50;61.49;101234.56;5060105;28;20086;-84
2022/06/04 00:05:57;;;;;;;4.72;1.65;;;;;;;15.46;61.41;101227.63;5040390;28;20049;-83
2022/06/04 00:08:27;;;;;;;5.20;2.17;;;;;;;15.47;61.34;101238.13;5056766;28;20136;-83
2022/06/04 00:16:38;;;;;;;1.85;1.45;;;;;;;15.30;61.38;101241.09;5047290;28;20045;-83
2022/06/04 00:19:10;;;;;;;1.30;1.20;;;;;;;15.25;61.36;101232.41;5059808;28;20052;-83
2022/06/04 00:21:37;;;;;;;3.47;3.10;;;;;;;15.20;61.32;101245.69;5046323;28;20040;-85
2022/06/04 00:24:06;;;;;;;1.50;1.50;;;;;;;15.17;61.33;101239.59;5044046;28;20812;-84
2022/06/04 00:26:33;;;;;;;2.15;1.63;;;;;;;15.12;61.16;101238.81;5051368;28;20068;-83
2022/06/04 00:29:05;;;;;;;1.27;1.20;;;;;;;15.08;61.16;101231.88;5049813;28;20049;-84
2022/06/04 00:31:32;;;;;;;1.77;1.52;;;;;;;15.08;61.22;101231.88;5066552;28;20044;-83
2022/06/04 00:33:58;;;;;;;2.38;1.60;;;;;;;15.04;61.11;101229.31;5057906;28;20059;-79
2022/06/04 00:36:29;;;;;;;2.80;1.70;;;;;;;15.02;60.75;101231.09;5061609;28;20040;-84
2022/06/04 00:39:01;;;;;;;1.67;1.57;;;;;;;15.01;60.40;101228.47;5055021;28;20052;-82
2022/06/04 00:42:04;;;;;;;3.45;1.33;;;;;;;14.93;60.73;101220.72;5046190;28;20310;-82
2022/06/04 00:44:30;;;;;;;1.70;1.10;;;;;;;14.91;60.00;101214.56;5064556;28;20075;-83
2022/06/04 00:47:24;;;;;;;1.58;1.48;;;;;;;14.92;59.56;101211.06;5060789;28;20056;-81
2022/06/04 00:49:51;;;;;;;5.55;2.72;;;;;;;14.84;59.45;101208.56;5059062;28;20037;-83
2022/06/04 00:52:19;;;;;;;3.10;1.48;;;;;;;14.80;59.51;101211.28;5059787;28;20147;-81
2022/06/04 00:54:52;;;;;;;1.85;1.65;;;;;;;14.71;59.55;101210.53;5043576;28;20166;-81
2022/06/04 00:58:06;;;;;;;2.00;1.40;;;;;;;14.66;59.46;101214.16;5057007;28;20062;-82
2022/06/04 01:01:01;;;;;;;2.10;1.80;;;;;;;14.55;60.02;101216.94;4987106;28;20098;-83
2022/06/04 01:03:44;;;;;;;1.15;1.10;;;;;;;14.50;59.96;101222.28;5042485;28;20946;-83
2022/06/04 01:06:27;;;;;;;2.30;1.93;;;;;;;14.45;60.07;101220.63;5058468;28;20048;-84
2022/06/04 01:09:21;;;;;;;3.20;2.13;;;;;;;14.37;60.42;101218.09;5037223;28;20297;-82
2022/06/04 01:12:35;;;;;;;2.15;1.30;;;;;;;14.33;60.60;101225.19;5042586;28;20049;-84
2022/06/04 01:15:40;;;;;;;1.33;0.95;;;;;;;14.29;60.43;101227.88;5039928;28;20044;-82
2022/06/04 01:18:16;;;;;;;3.55;1.50;;;;;;;14.26;60.35;101230.56;5042332;28;20457;-83
2022/06/04 01:21:16;;;;;;;1.30;1.23;;;;;;;14.22;60.65;101225.34;5059712;28;20099;-83
2022/06/04 01:24:26;;;;;;;1.05;1.05;;;;;;;14.22;60.71;101227.09;5061870;28;20045;-84
2022/06/04 01:27:15;;;;;;;2.50;1.40;;;;;;;14.14;60.73;101223.72;5055154;28;20109;-84
2022/06/04 01:29:53;;;;;;;2.30;1.60;;;;;;;14.07;60.99;101228.19;5056483;28;20628;-82
2022/06/04 01:32:30;;;;;;;1.75;1.40;;;;;;;14.05;60.66;101227.34;5045248;28;20037;-83
2022/06/04 01:35:26;;;;;;;1.73;1.35;;;;;;;14.01;60.58;101229.13;5041850;28;20047;-82
2022/06/04 01:38:02;;;;;;;1.05;1.05;;;;;;;13.95;60.82;101231.88;5042415;28;20505;-83
2022/06/04 01:43:26;;;;;;;1.60;1.45;;;;;;;13.86;60.80;101243.38;5061828;28;20040;-83
2022/06/04 01:45:57;;;;;;;2.45;1.48;;;;;;;13.81;60.61;101237.31;5046150;28;20044;-83
2022/06/04 01:48:26;;;;;;;1.45;1.35;;;;;;;13.75;60.89;101240.03;5047649;28;20495;-81
2022/06/04 01:51:00;;;;;;;2.78;1.33;;;;;;;13.73;61.04;101244.44;5060296;28;20493;-83
2022/06/04 01:53:37;;;;;;;2.15;1.67;;;;;;;13.70;60.84;101249.72;5044257;28;20064;-83
2022/06/04 01:56:18;;;;;;;2.70;1.20;;;;;;;13.66;61.01;101251.56;5041835;28;20055;-83
2022/06/04 01:58:54;;;;;;;1.70;1.60;;;;;;;13.61;61.08;101247.22;5062411;28;20123;-83
2022/06/04 02:01:29;;;;;;;2.88;1.30;;;;;;;13.58;60.89;101258.63;5042280;28;20041;-83
2022/06/04 02:04:14;;;;;;;3.20;1.30;;;;;;;13.54;61.61;101262.19;5054226;28;20036;-81
2022/06/04 02:07:29;;;;;;;2.75;1.70;;;;;;;13.48;61.32;101265.78;5036611;28;20514;-82
2022/06/04 02:09:37;;;;;;;1.08;0.98;;;;;;;13.43;61.63;101262.34;5043549;28;20568;-83
2022/06/04 02:12:05;;;;;;;1.40;1.30;;;;;;;13.42;61.67;101264.97;5032921;28;20380;-83
2022/06/04 02:14:32;;;;;;;2.08;1.30;;;;;;;13.35;61.63;101262.38;5063540;28;20086;-82
2022/06/04 02:17:09;;;;;;;1.65;1.27;;;;;;;13.31;61.94;101268.56;5034118;28;20264;-83
2022/06/04 02:19:36;;;;;;;2.35;1.50;;;;;;;13.24;62.15;101261.59;5054567;28;20043;-83
2022/06/04 02:22:04;;;;;;;1.45;1.30;;;;;;;13.17;62.26;101263.44;5052593;28;20405;-83
2022/06/04 02:24:30;;;;;;;4.95;1.48;;;;;;;13.12;62.28;101269.63;5056621;28;20040;-81
2022/06/04 02:26:57;;;;;;;1.48;1.38;;;;;;;13.05;61.88;101276.72;5052804;28;20582;-83
2022/06/04 02:29:23;;;;;;;0.88;0.88;;;;;;;13.00;62.22;101286.41;5039826;28;20169;-84
2022/06/04 02:32:25;;;;;;;1.67;1.40;;;;;;;12.96;62.50;101290.81;5058127;28;20099;-81
2022/06/04 02:35:42;;;;;;;1.30;1.30;;;;;;;12.88;62.67;101289.97;5051040;28;20100;-82
2022/06/04 02:38:20;;;;;;;1.63;1.50;;;;;;;12.82;62.49;101284.78;5050672;28;20449;-82
2022/06/04 02:41:43;;;;;;;2.88;1.58;;;;;;;12.74;63.42;101275.19;5058945;28;20059;-83
2022/06/04 02:44:33;;;;;;;1.33;1.15;;;;;;;12.72;63.33;101277.00;5045446;28;20072;-82
2022/06/04 02:47:13;;;;;;;2.38;1.02;;;;;;;12.67;63.53;101288.38;5051181;28;20098;-83
2022/06/04 02:49:56;;;;;;;1.67;1.20;;;;;;;12.66;63.48;101300.66;5037731;28;20139;-83
2022/06/04 02:52:24;;;;;;;1.13;1.13;;;;;;;12.65;63.40;101298.91;5050325;28;20056;-83
2022/06/04 02:55:01;;;;;;;1.45;1.23;;;;;;;12.62;63.94;101290.19;5051341;28;20103;-83
2022/06/04 02:57:33;;;;;;;1.95;1.85;;;;;;;12.56;64.26;101291.09;5051140;28;20051;-81
2022/06/04 03:00:05;;;;;;;2.33;1.40;;;;;;;12.52;64.01;101298.13;5042064;28;20107;-83
2022/06/04 03:02:34;;;;;;;1.30;1.00;;;;;;;12.48;64.03;101296.41;5040209;28;20045;-82
2022/06/04 03:05:11;;;;;;;1.60;1.33;;;;;;;12.45;64.38;101293.81;5050138;28;20105;-82
2022/06/04 03:07:42;;;;;;;1.30;1.02;;;;;;;12.41;64.99;101289.44;5036135;28;20062;-81
2022/06/04 03:10:18;;;;;;;1.85;1.30;;;;;;;12.41;64.50;101287.69;5036416;28;20113;-82
2022/06/04 03:12:45;;;;;;;4.10;1.40;;;;;;;12.38;64.55;101286.84;5049116;28;20059;-81
2022/06/04 03:15:13;;;;;;;3.78;1.80;;;;;;;12.35;64.75;101292.13;5037429;28;20478;-83
2022/06/04 03:17:44;;;;;;;1.27;1.27;;;;;;;12.32;64.90;101282.50;5041577;28;20127;-82
2022/06/04 03:20:15;;;;;;;1.33;1.25;;;;;;;12.28;65.05;101288.66;5059397;28;20052;-82
2022/06/04 03:22:42;;;;;;;1.75;1.65;;;;;;;12.28;65.48;101288.66;5034723;28;20052;-83
2022/06/04 03:25:09;;;;;;;1.65;1.13;;;;;;;12.27;64.97;101297.41;5038112;28;20052;-81
2022/06/04 03:27:36;;;;;;;1.35;1.30;;;;;;;12.28;65.26;101307.03;5057203;28;20044;-82
2022/06/04 03:30:07;;;;;;;1.58;1.58;;;;;;;12.26;65.57;101307.94;5051940;28;20052;-82
2022/06/04 03:32:37;;;;;;;2.35;1.58;;;;;;;12.24;65.32;101308.81;5054384;28;20155;-82
2022/06/04 03:35:04;;;;;;;1.63;1.52;;;;;;;12.23;65.25;101303.56;5041716;28;20106;-83
2022/06/04 03:37:31;;;;;;;1.42;1.42;;;;;;;12.21;65.48;101305.31;5057674;28;20069;-83
2022/06/04 03:39:59;;;;;;;1.70;1.30;;;;;;;12.21;65.73;101310.56;5037186;28;20047;-82
2022/06/04 03:42:26;;;;;;;2.67;1.40;;;;;;;12.22;65.56;101302.69;5038500;28;20052;-82
2022/06/04 03:44:55;;;;;;;1.60;1.50;;;;;;;12.25;65.38;101304.41;5054812;28;20119;-82
2022/06/04 03:47:22;;;;;;;2.17;1.95;;;;;;;12.26;65.26;101302.69;5052726;28;20075;-81
2022/06/04 03:49:49;;;;;;;2.30;1.25;;;;;;;12.30;65.03;101304.41;5056157;28;20049;-83
2022/06/04 03:52:15;;;;;;;1.55;1.45;;;;;;;12.32;65.28;101293.00;5054547;28;20044;-81
2022/06/04 03:54:55;;;;;;;2.33;2.13;;;;;;;12.35;64.86;101298.22;5044084;28;20044;-82
2022/06/04 03:57:45;;;;;;;1.48;1.38;;;;;;;12.40;64.71;101291.19;5034092;28;20136;-81
2022/06/04 04:00:34;;;;;;;1.75;1.50;;;;;;;12.45;64.96;101296.44;5055709;28;20078;-83
2022/06/04 04:03:14;;;;;;;2.63;1.70;;;;;;;12.48;64.60;101292.91;5046846;28;20060;-82
2022/06/04 04:05:50;;;;;;;1.40;1.30;;;;;;;12.49;64.57;101290.28;5045490;28;20070;-81
2022/06/04 04:08:19;;;;;;;3.65;1.73;;;;;;;12.52;64.40;101297.25;5052419;28;20042;-83
2022/06/04 04:10:53;;;;;;;1.20;1.20;;;;;;;12.56;64.10;101293.72;5061246;28;20041;-83
2022/06/04 04:13:20;;;;;;;1.55;1.48;;;;;;;12.55;63.92;101297.22;5041668;28;20056;-83
2022/06/04 04:15:47;;;;;;;1.90;1.73;;;;;;;12.57;63.71;101300.72;5043181;28;20049;-83
2022/06/04 04:18:15;;;;;;;1.55;1.50;;;;;;;12.58;63.30;101310.38;5058632;28;20053;-83
2022/06/04 04:20:45;;;;;;;1.13;1.13;;;;;;;12.54;63.34;101308.63;5050852;28;20122;-82
2022/06/04 04:23:11;;;;;;;1.15;1.00;;;;;;;12.51;63.43;101296.38;5055823;28;20052;-83
2022/06/04 04:25:38;;;;;;;1.67;1.50;;;;;;;12.53;62.82;101299.88;5054703;28;20072;-83
2022/06/04 04:28:07;;;;;;;3.28;1.50;;;;;;;12.53;62.51;101302.50;5056968;28;20293;-83
2022/06/04 04:30:36;;;;;;;1.55;1.45;;;;;;;12.59;62.23;101298.94;5063553;28;20053;-84
2022/06/04 04:33:03;;;;;;;1.73;1.63;;;;;;;12.63;62.21;101294.56;5038231;28;20052;-83
2022/06/04 04:35:33;;;;;;;1.58;1.48;;;;;;;12.68;61.89;101295.41;5041787;28;20078;-83
2022/06/04 04:38:00;;;;;;;2.70;1.42;;;;;;;12.71;61.68;101284.84;5045682;28;20072;-81
2022/06/04 04:40:30;;;;;;;1.90;1.52;;;;;;;12.77;60.85;101278.69;5047934;28;20388;-83
2022/06/04 04:42:57;;;;;;;2.05;1.08;;;;;;;12.78;60.99;101283.94;5056534;28;20048;-83
2022/06/04 04:45:26;;;;;;;2.45;1.23;;;;;;;12.81;60.76;101278.66;5032161;28;20052;-82
2022/06/04 04:47:54;;;;;;;1.70;1.60;;;;;;;12.84;60.37;101281.25;5063966;28;20040;-83
2022/06/04 04:50:28;;;;;;;1.40;1.30;;;;;;;12.87;60.13;101289.09;5043623;28;20037;-82
2022/06/04 04:52:57;;;;;;;1.15;1.05;;;;;;;12.92;60.16;101294.34;5047482;28;20137;-83
2022/06/04 04:55:25;;;;;;;2.97;1.30;;;;;;;12.94;59.46;101294.31;5056301;28;20049;-84
2022/06/04 04:57:52;;;;;;;1.20;1.20;;;;;;;12.96;58.85;101303.03;5042574;28;20049;-84
2022/06/04 05:00:19;;;;;;;1.38;1.27;;;;;;;12.98;59.14;101307.41;5045496;28;20049;-80
2022/06/04 05:02:46;;;;;;;1.88;1.67;;;;;;;13.07;58.91;101311.72;5058726;28;20043;-82
2022/06/04 05:05:17;;;;;;;2.38;1.92;;;;;;;13.16;58.78;101305.53;5060880;28;20590;-82
2022/06/04 05:07:44;;;;;;;1.38;1.27;;;;;;;13.27;58.48;101306.31;5058462;28;20907;-82
2022/06/04 05:10:13;;;;;;;2.08;1.40;;;;;;;13.34;58.13;101313.22;5044815;28;20052;-83
2022/06/04 05:12:40;;;;;;;3.70;1.38;;;;;;;13.44;58.11;101313.16;5059489;28;20408;-79
2022/06/04 05:15:08;;;;;;;1.63;1.52;;;;;;;13.51;57.74;101301.69;5040944;28;20114;-81
2022/06/04 05:17:37;;;;;;;0.98;0.98;;;;;;;13.62;57.56;101318.22;5044459;28;20494;-81
2022/06/04 05:20:05;;;;;;;1.35;1.20;;;;;;;13.72;57.43;101304.06;5061150;28;20043;-82
2022/06/04 05:22:33;;;;;;;1.45;1.35;;;;;;;13.77;56.91;101301.41;5046043;28;20071;-82
2022/06/04 05:24:59;;;;;;;3.40;1.17;;;;;;;13.76;56.55;101302.28;5055888;28;20119;-82
2022/06/04 05:27:26;;;;;;;1.70;1.60;;;;;;;13.71;56.73;101301.47;5047871;28;20064;-82
2022/06/04 05:29:53;;;;;;;2.38;1.35;;;;;;;13.67;56.97;101305.03;5046013;28;20040;-82
2022/06/04 05:32:19;;;;;;;1.38;1.27;;;;;;;13.70;57.00;101304.97;5047100;28;20041;-81
2022/06/04 05:34:46;;;;;;;1.48;1.25;;;;;;;13.75;56.93;101312.84;5045092;28;20049;-81
2022/06/04 05:37:13;;;;;;;3.80;1.40;;;;;;;13.83;56.80;101303.97;5036586;28;21330;-82
2022/06/04 05:39:39;;;;;;;1.52;1.42;;;;;;;13.94;56.83;101306.47;5059250;28;20045;-81
2022/06/04 05:42:07;;;;;;;1.45;1.20;;;;;;;14.08;55.75;101301.03;5060782;28;20180;-82
2022/06/04 05:44:34;;;;;;;1.95;1.50;;;;;;;14.17;56.19;101298.28;5041402;28;20465;-82
2022/06/04 05:47:01;;;;;;;1.58;1.27;;;;;;;14.31;56.14;101298.06;5058781;28;20115;-82
2022/06/04 05:49:27;;;;;;;1.83;1.73;;;;;;;14.44;55.15;101303.16;5057079;28;20061;-82
2022/06/04 05:51:57;;;;;;;2.60;2.15;;;;;;;14.48;54.97;101305.72;5061162;28;20100;-83
2022/06/04 05:54:24;;;;;;;1.50;1.40;;;;;;;14.48;55.06;101315.38;5044034;28;20052;-82
2022/06/04 05:56:52;;;;;;;1.58;1.35;;;;;;;14.51;54.95;101325.88;5059503;28;20055;-82
2022/06/04 05:59:23;;;;;;;4.32;2.50;;;;;;;14.59;55.07;101325.75;5062155;28;20037;-82
2022/06/04 06:01:52;;;;;;;2.70;1.67;;;;;;;14.70;55.00;101327.38;5063843;28;20402;-81
2022/06/04 06:04:21;;;;;;;1.05;0.75;;;;;;;14.80;54.62;101324.63;5065990;28;20066;-81
2022/06/04 06:06:53;;;;;;;1.67;1.00;;;;;;;14.91;54.40;101320.03;5064470;28;20059;-82
2022/06/04 06:09:23;;;;;;;1.25;1.20;;;;;;;15.02;54.40;101338.31;5051499;28;20646;-81
2022/06/04 06:11:51;;;;;;;2.10;1.30;;;;;;;15.10;53.92;101339.06;5050252;28;20075;-83
2022/06/04 06:14:19;;;;;;;3.75;1.65;;;;;;;15.16;53.04;101346.88;5049601;28;20095;-82
2022/06/04 06:16:49;;;;;;;1.23;1.10;;;;;;;15.20;52.96;101359.09;5049706;28;20183;-80
2022/06/04 06:19:19;;;;;;;1.20;1.10;;;;;;;15.22;52.98;101356.44;5060188;28;20053;-83
2022/06/04 06:21:46;;;;;;;2.10;1.30;;;;;;;15.30;52.85;101358.94;5060387;28;20124;-83
2022/06/04 06:24:16;;;;;;;2.42;1.15;;;;;;;15.33;53.02;101366.78;5055064;28;20072;-81
2022/06/04 06:26:57;;;;;;;1.17;1.17;;;;;;;15.36;52.99;101367.63;5058616;28;21024;-82
2022/06/04 06:29:26;;;;;;;1.95;1.45;;;;;;;15.41;52.93;101372.81;5045712;28;20513;-82
2022/06/04 06:31:54;;;;;;;1.98;1.73;;;;;;;15.46;52.81;101384.16;5065015;28;20145;-83
2022/06/04 06:34:22;;;;;;;6.43;1.55;;;;;;;15.47;52.90;101371.84;5064779;28;20099;-84
2022/06/04 06:36:49;;;;;;;1.48;1.27;;;;;;;15.44;52.78;101364.00;5058771;28;20102;-82
2022/06/04 06:39:16;;;;;;;1.65;1.30;;;;;;;15.39;52.92;101372.81;5058355;28;20495;-83
2022/06/04 06:41:43;;;;;;;2.42;1.35;;;;;;;15.36;52.64;101369.41;5043988;28;20171;-82
2022/06/04 06:44:13;;;;;;;1.40;1.30;;;;;;;15.29;52.89;101368.63;5044762;28;20044;-83
2022/06/04 06:46:45;;;;;;;2.22;2.03;;;;;;;15.26;53.19;101371.31;5068297;28;20032;-82
2022/06/04 06:49:28;;;;;;;1.42;1.27;;;;;;;15.22;52.99;101378.41;5057644;28;20133;-83
2022/06/04 06:51:58;;;;;;;3.35;1.60;;;;;;;15.21;53.07;101389.88;5043346;28;20047;-83
2022/06/04 06:54:31;;;;;;;1.80;1.33;;;;;;;15.23;53.61;101395.09;5038779;28;20073;-84
2022/06/04 06:56:58;;;;;;;0.98;0.95;;;;;;;15.40;53.36;101400.09;5048072;28;20048;-83
2022/06/04 06:59:25;;;;;;;1.50;1.40;;;;;;;15.51;52.63;101405.19;5057485;28;20053;-82
2022/06/04 07:01:53;;;;;;;2.20;1.27;;;;;;;15.53;52.47;101406.03;5059860;28;20048;-83
2022/06/04 07:04:21;;;;;;;1.67;1.38;;;;;;;15.57;52.33;101404.22;5063447;28;20489;-82
2022/06/04 07:06:57;;;;;;;1.90;1.70;;;;;;;15.55;52.36;101410.41;5056814;28;20419;-81
2022/06/04 07:09:35;;;;;;;3.85;1.73;;;;;;;15.52;52.47;101425.41;5061331;28;20072;-81
2022/06/04 07:12:02;;;;;;;3.42;1.95;;;;;;;15.54;52.68;101419.19;5047137;28;20143;-82
2022/06/04 07:14:30;;;;;;;3.65;1.15;;;;;;;15.61;52.20;101419.09;5063759;28;20051;-83
2022/06/04 07:16:59;;;;;;;1.77;1.48;;;;;;;15.78;51.97;101411.75;5059944;28;20344;-82
2022/06/04 07:19:27;;;;;;;1.42;1.20;;;;;;;16.10;51.68;101410.28;5045736;28;20051;-82
2022/06/04 07:21:56;;;;;;;1.63;1.25;;;;;;;16.46;50.50;101407.78;5044539;28;20044;-82
2022/06/04 07:24:23;;;;;;;3.08;1.75;;;;;;;16.86;49.34;101400.75;5040179;28;20106;-84
2022/06/04 07:26:50;;;;;;;1.25;1.17;;;;;;;17.37;47.87;101402.19;5061376;28;20053;-83
2022/06/04 07:29:17;;;;;;;1.52;1.38;;;;;;;17.77;46.67;101398.50;5060287;28;20525;-82
2022/06/04 07:31:44;;;;;;;2.75;1.10;;;;;;;18.08;45.16;101395.03;5065757;28;20127;-83
2022/06/04 07:34:10;;;;;;;2.33;1.20;;;;;;;18.39;45.36;101398.56;5044466;28;20555;-83
2022/06/04 07:36:42;;;;;;;1.15;0.98;;;;;;;19.06;44.18;101400.94;5042653;28;20129;-85
2022/06/04 07:39:10;;;;;;;1.75;0.85;;;;;;;19.71;42.90;101397.88;5047047;28;20148;-83
2022/06/04 07:41:43;;;;;;;1.52;0.98;;;;;;;20.35;40.95;101396.47;5064667;28;20068;-83
2022/06/04 07:44:11;;;;;;;4.30;1.08;;;;;;;20.60;40.03;101391.94;5050064;28;20109;-84
2022/06/04 07:46:40;;;;;;;4.35;1.17;;;;;;;20.73;39.13;101386.16;5046001;28;20053;-83
2022/06/04 07:49:08;;;;;;;55.60;5.78;;;;;;;20.86;39.65;101390.06;5061062;28;20045;-84
2022/06/04 07:51:37;;;;;;;1.67;1.33;;;;;;;21.08;39.42;101384.72;5046155;28;20045;-82
2022/06/04 07:54:07;;;;;;;5.72;1.38;;;;;;;21.35;39.33;101384.47;5047025;28;20028;-83
2022/06/04 07:56:33;;;;;;;22.30;1.92;;;;;;;21.77;37.90;101386.25;5043871;28;20048;-83
2022/06/04 07:59:00;;;;;;;4.95;1.02;;;;;;;22.07;37.09;101384.94;5046807;28;20076;-82
2022/06/04 08:01:28;;;;;;;1.27;1.20;;;;;;;22.17;37.35;101386.25;5059270;28;20874;-83
2022/06/04 08:03:57;;;;;;;3.13;1.50;;;;;;;22.29;36.64;101380.38;5064825;28;20058;-83
2022/06/04 08:06:29;;;;;;;1.48;1.33;;;;;;;22.51;36.64;101386.50;5047491;28;20052;-84
2022/06/04 08:08:57;;;;;;;1.58;1.17;;;;;;;22.80;35.86;101377.97;5048409;28;20098;-83
2022/06/04 08:11:35;;;;;;;2.42;1.20;;;;;;;23.25;35.77;101385.59;5044377;28;20155;-83
2022/06/04 08:14:13;;;;;;;0.73;0.73;;;;;;;24.06;34.69;101380.50;5051386;28;20124;-86
2022/06/04 08:16:51;;;;;;;2.05;1.10;;;;;;;24.54;33.66;101375.19;5058635;28;20536;-82
2022/06/04 08:19:19;;;;;;;1.42;1.35;;;;;;;24.68;33.62;101373.56;5061221;28;20051;-83
2022/06/04 08:21:46;;;;;;;1.13;0.88;;;;;;;24.82;33.72;101378.13;5039981;28;20466;-83
2022/06/04 08:24:15;;;;;;;5.05;1.40;;;;;;;24.71;32.88;101384.97;5044531;28;20052;-85
2022/06/04 08:26:46;;;;;;;0.75;0.75;;;;;;;24.76;32.77;101385.56;5056648;28;20059;-85
2022/06/04 08:29:15;;;;;;;1.70;1.60;;;;;;;25.06;32.70;101378.53;5042641;28;20060;-85
2022/06/04 08:31:42;;;;;;;3.15;0.90;;;;;;;25.45;32.32;101387.00;5044951;28;20049;-85
2022/06/04 08:34:09;;;;;;;1.00;1.00;;;;;;;25.82;32.00;101382.06;5055884;28;20060;-85
2022/06/04 08:36:35;;;;;;;1.80;0.90;;;;;;;26.16;31.60;101386.22;5055216;28;20345;-85
2022/06/04 08:39:04;;;;;;;1.33;1.20;;;;;;;26.58;30.99;101389.78;5042783;28;20431;-86
2022/06/04 08:42:13;;;;;;;1.20;1.10;;;;;;;26.86;30.16;101371.88;5039514;28;20051;-85
2022/06/04 08:44:42;;;;;;;2.83;1.20;;;;;;;27.47;30.21;101373.22;5061055;28;20041;-86
2022/06/04 08:47:33;;;;;;;1.02;1.00;;;;;;;28.17;29.67;101371.94;5040822;28;20059;-84
2022/06/04 08:50:09;;;;;;;1.30;0.95;;;;;;;28.85;28.68;101375.06;5059472;28;20093;-85
2022/06/04 08:53:00;;;;;;;2.78;1.60;;;;;;;29.13;27.42;101373.84;5052886;28;20041;-85
2022/06/04 08:59:07;;;;;;;3.67;1.00;;;;;;;29.53;27.67;101380.72;5059526;28;20040;-84
2022/06/04 09:01:47;;;;;;;2.47;1.10;;;;;;;29.32;27.42;101384.09;5047449;28;20065;-84
2022/06/04 09:04:42;;;;;;;3.40;1.17;;;;;;;29.00;27.86;101389.22;5055811;28;20118;-83
2022/06/04 09:07:22;;;;;;;2.13;1.33;;;;;;;27.93;29.17;101388.84;5061859;28;20052;-83
2022/06/04 09:09:52;;;;;;;2.60;1.15;;;;;;;27.54;29.80;101393.34;5046213;28;20049;-86
2022/06/04 09:12:30;;;;;;;1.75;1.08;;;;;;;27.88;28.78;101391.84;5060676;28;20053;-84
2022/06/04 09:15:12;;;;;;;2.10;1.20;;;;;;;28.38;28.79;101393.72;5044233;28;20052;-84
2022/06/04 09:17:59;;;;;;;1.55;1.02;;;;;;;29.69;27.35;101391.16;5060485;28;20048;-84
2022/06/04 09:20:45;;;;;;;3.63;1.95;;;;;;;30.05;26.19;101391.09;5044435;28;20046;-85
2022/06/04 09:23:38;;;;;;;1.95;1.25;;;;;;;29.92;26.22;101393.91;5055433;28;20383;-84
2022/06/04 09:26:13;;;;;;;0.95;0.95;;;;;;;30.13;26.13;101394.91;5076268;28;20055;-84
2022/06/04 09:29:29;;;;;;;1.48;1.40;;;;;;;30.70;25.55;101392.13;5059306;28;20041;-86
2022/06/04 09:32:44;;;;;;;0.80;0.80;;;;;;;31.16;25.40;101400.97;5063156;28;20040;-84
2022/06/04 09:35:14;;;;;;;2.40;1.23;;;;;;;31.00;25.30;101390.53;5048422;28;20218;-85
2022/06/04 09:37:48;;;;;;;1.08;1.00;;;;;;;31.06;24.51;101387.34;5062285;28;20125;-86
2022/06/04 09:40:22;;;;;;;0.80;0.80;;;;;;;31.54;24.71;101399.50;5043305;28;20049;-84
2022/06/04 09:42:50;;;;;;;1.75;1.00;;;;;;;31.87;24.49;101397.56;5062269;28;20049;-84
2022/06/04 09:45:27;;;;;;;2.45;2.25;;;;;;;31.87;23.68;101396.72;5058198;28;20112;-84
2022/06/04 09:48:00;;;;;;;1.40;1.27;;;;;;;31.25;24.58;101404.72;5060664;28;20667;-85
2022/06/04 09:50:37;;;;;;;2.10;1.02;;;;;;;31.70;24.41;101403.63;5055843;28;20048;-85
2022/06/04 09:53:13;;;;;;;0.88;0.88;;;;;;;32.46;23.61;101398.69;5042813;28;20376;-85
2022/06/04 09:55:50;;;;;;;1.33;0.98;;;;;;;32.76;23.13;101401.47;5059024;28;20054;-85
2022/06/04 09:58:21;;;;;;;1.63;1.23;;;;;;;32.81;23.00;101402.78;5056403;28;20109;-84
2022/06/04 10:00:58;;;;;;;1.67;0.93;;;;;;;33.05;22.60;101403.31;5062415;28;20068;-85
2022/06/04 10:03:26;;;;;;;1.20;1.20;;;;;;;33.42;21.72;101399.91;5055841;28;20151;-84
2022/06/04 10:06:11;;;;;;;1.02;0.82;;;;;;;33.29;22.12;101403.75;5058374;28;20048;-83
2022/06/04 10:11:59;;;;;;;2.58;1.25;;;;;;;31.91;23.14;101393.59;5026470;28;20052;-84
2022/06/04 10:15:00;;;;;;;1.17;1.13;;;;;;;32.48;22.90;101396.69;5054485;28;20052;-85
2022/06/04 10:17:37;;;;;;;1.15;1.05;;;;;;;33.53;22.27;101396.16;5059063;28;20062;-84
2022/06/04 10:20:18;;;;;;;1.30;1.20;;;;;;;33.74;21.53;101396.81;5058325;28;20087;-85
2022/06/04 10:22:49;;;;;;;1.55;1.15;;;;;;;33.26;22.51;101395.94;5058281;28;20037;-86
2022/06/04 10:25:32;;;;;;;0.60;0.52;;;;;;;33.47;22.39;101394.91;5042323;28;20095;-84
2022/06/04 10:28:07;;;;;;;;;;;;;;;34.23;21.48;101401.22;5044325;28;20105;-84
2022/06/04 10:30:59;;;;;;;0.98;0.98;;;;;;;34.99;21.33;101397.31;5042663;28;19994;-84
2022/06/04 10:33:36;;;;;;;;;;;;;;;34.83;21.15;101395.25;5044866;28;20486;-84
2022/06/04 10:36:23;;;;;;;1.83;1.42;;;;;;;35.36;20.75;101392.69;5062644;28;19924;-87
2022/06/04 10:39:06;;;;;;;1.38;1.20;;;;;;;35.51;19.58;101395.69;5058435;28;20037;-85
2022/06/04 10:42:01;;;;;;;2.72;1.40;;;;;;;34.92;19.50;101405.22;5055755;28;20076;-84
2022/06/04 10:45:04;;;;;;;1.10;1.00;;;;;;;34.43;20.57;101397.41;5040280;28;20092;-84
2022/06/04 10:47:44;;;;;;;1.13;1.13;;;;;;;34.63;20.11;101391.84;5043164;28;21871;-86
2022/06/04 10:54:12;;;;;;;3.33;1.00;;;;;;;35.14;19.59;101403.06;5057949;28;20051;-84
2022/06/04 10:57:22;;;;;;;0.85;0.85;;;;;;;35.03;20.01;101396.00;5051321;28;20051;-84
2022/06/04 11:00:18;;;;;;;0.90;0.90;;;;;;;35.51;19.94;101390.25;5039367;28;20044;-85
2022/06/04 11:03:15;;;;;;;1.75;0.90;;;;;;;36.06;19.07;101386.31;5052807;28;20536;-84
2022/06/04 11:05:48;;;;;;;1.60;1.17;;;;;;;35.80;19.68;101389.94;5041913;28;20056;-85
2022/06/04 11:08:23;;;;;;;4.55;1.08;;;;;;;36.45;18.92;101388.50;5053184;28;20053;-86
2022/06/04 11:10:57;;;;;;;1.00;1.00;;;;;;;37.64;18.44;101383.63;5045250;28;20115;-86
2022/06/04 11:13:31;;;;;;;1.83;1.20;;;;;;;38.90;17.60;101388.31;5042742;28;20118;-84
2022/06/04 11:16:10;;;;;;;1.58;1.00;;;;;;;39.97;16.39;101392.75;5046566;28;20040;-85
2022/06/04 11:18:47;;;;;;;8.38;2.10;;;;;;;40.02;15.78;101380.16;5044785;28;20105;-87
2022/06/04 11:21:35;;;;;;;1.30;1.30;;;;;;;38.80;16.76;101386.69;5066418;28;20076;-86
2022/06/04 11:24:16;;;;;;;1.23;0.70;;;;;;;38.48;17.37;101396.78;5068938;28;20701;-84
2022/06/04 11:26:56;;;;;;;2.53;0.75;;;;;;;38.35;17.49;101389.16;5059824;28;20049;-85
2022/06/04 11:29:23;;;;;;;1.33;1.20;;;;;;;39.83;16.66;101378.00;5048881;28;20045;-85
2022/06/04 11:32:21;;;;;;;0.80;0.80;;;;;;;41.01;15.57;101378.75;5072408;28;20053;-87
2022/06/04 11:35:16;;;;;;;3.35;3.15;;;;;;;39.68;16.13;101372.56;5074842;28;20045;-84
2022/06/04 11:38:13;;;;;;;1.58;1.08;;;;;;;37.95;17.44;101382.00;5039235;28;20072;-85
2022/06/04 11:41:08;;;;;;;2.38;1.20;;;;;;;37.65;18.16;101374.38;5058498;28;20044;-84
2022/06/04 11:43:55;;;;;;;1.65;1.35;;;;;;;36.99;18.35;101369.00;5075250;28;20462;-85
2022/06/04 11:46:57;;;;;;;1.38;1.38;;;;;;;35.68;19.46;101380.31;5056731;28;20056;-84
2022/06/04 11:49:35;;;;;;;1.27;1.27;;;;;;;34.10;20.68;101379.84;5055840;28;20102;-84
2022/06/04 11:52:30;;;;;;;1.45;1.10;;;;;;;32.77;22.93;101376.91;5038176;28;20374;-84
2022/06/04 11:55:24;;;;;;;1.13;1.13;;;;;;;32.32;22.78;101383.66;5039729;28;20098;-85
2022/06/04 11:58:43;;;;;;;1.80;1.70;;;;;;;32.20;23.16;101379.34;5042555;28;20045;-85
2022/06/04 12:01:18;;;;;;;1.27;1.17;;;;;;;32.75;23.01;101378.06;4983495;28;20056;-84
2022/06/04 12:03:56;;;;;;;1.80;1.70;;;;;;;33.13;22.12;101377.19;4980241;28;20054;-84
2022/06/04 12:06:39;;;;;;;1.30;1.30;;;;;;;32.87;22.73;101384.19;5015371;28;20063;-84
2022/06/04 12:09:21;;;;;;;1.90;1.50;;;;;;;32.63;23.24;101382.72;5038071;28;20054;-84
2022/06/04 12:12:16;;;;;;;1.70;1.60;;;;;;;32.64;22.98;101374.44;5052792;28;20519;-85
2022/06/04 12:14:54;;;;;;;1.88;1.45;;;;;;;32.05;23.59;101381.56;5058218;28;20581;-86
2022/06/04 12:17:33;;;;;;;2.65;1.70;;;;;;;31.41;24.57;101388.03;5048834;28;20044;-85
2022/06/04 12:26:23;;;;;;;3.00;1.60;;;;;;;30.27;25.83;101379.41;5045164;28;19943;-85
2022/06/04 12:28:52;;;;;;;3.30;1.70;;;;;;;30.07;25.81;101387.28;5057757;28;20052;-84
2022/06/04 12:31:38;;;;;;;1.55;1.50;;;;;;;29.63;26.34;101389.78;5064187;28;20120;-84